createdAt,value
2023-04-13T00:00:36.385Z,99.90
2023-04-13T00:03:05.097Z,99.90
2023-04-13T00:05:36.368Z,99.90
2023-04-13T00:08:04.704Z,99.90
2023-04-13T00:10:36.252Z,99.90
2023-04-13T00:13:06.474Z,99.90
2023-04-13T00:15:36.921Z,99.90
2023-04-13T00:18:05.560Z,99.90
2023-04-13T00:20:33.943Z,99.90
2023-04-13T00:23:02.089Z,99.90
2023-04-13T00:25:30.624Z,99.90
2023-04-13T00:28:02.807Z,99.90
2023-04-13T00:30:32.377Z,99.90
2023-04-13T00:33:05.395Z,99.90
2023-04-13T00:35:34.078Z,99.90
2023-04-13T00:38:04.407Z,99.90
2023-04-13T00:40:37.680Z,99.90
2023-04-13T00:43:05.929Z,99.90
2023-04-13T00:45:39.112Z,99.90
2023-04-13T00:48:10.665Z,99.90
2023-04-13T00:50:39.405Z,99.90
2023-04-13T00:53:10.642Z,99.90
2023-04-13T00:55:42.539Z,99.90
2023-04-13T00:58:10.977Z,99.90
2023-04-13T01:00:43.506Z,99.90
2023-04-13T01:03:13.155Z,99.90
2023-04-13T01:05:50.630Z,99.90
2023-04-13T01:08:28.578Z,99.90
2023-04-13T01:11:03.513Z,99.90
2023-04-13T01:13:36.218Z,99.90
2023-04-13T01:16:17.633Z,99.90
2023-04-13T01:18:49.605Z,99.90
2023-04-13T01:21:24.820Z,99.90
2023-04-13T01:24:05.463Z,99.90
2023-04-13T01:26:40.528Z,99.90
2023-04-13T01:29:10.151Z,99.90
2023-04-13T01:31:38.879Z,99.90
2023-04-13T01:34:07.161Z,99.90
2023-04-13T01:36:39.894Z,99.90
2023-04-13T01:39:09.071Z,99.90
2023-04-13T01:41:38.197Z,99.90
2023-04-13T01:44:07.186Z,99.90
2023-04-13T01:46:37.650Z,99.90
2023-04-13T01:49:20.163Z,99.90
2023-04-13T01:52:09.610Z,99.90
2023-04-13T01:54:45.458Z,99.90
2023-04-13T01:57:15.949Z,99.90
2023-04-13T01:59:44.984Z,99.90
2023-04-13T02:02:18.762Z,99.90
2023-04-13T02:04:46.977Z,99.90
2023-04-13T02:07:16.368Z,99.90
2023-04-13T02:09:48.590Z,99.90
2023-04-13T02:12:17.972Z,99.90
2023-04-13T02:14:46.189Z,99.90
2023-04-13T02:17:14.349Z,99.90
2023-04-13T02:19:46.910Z,99.90
2023-04-13T02:22:17.395Z,99.90
2023-04-13T02:24:48.929Z,99.90
2023-04-13T02:27:17.227Z,99.90
2023-04-13T02:29:48.140Z,99.90
2023-04-13T02:32:16.366Z,99.90
2023-04-13T02:34:46.169Z,99.90
2023-04-13T02:37:16.128Z,99.90
2023-04-13T02:39:44.635Z,99.90
2023-04-13T02:42:12.820Z,99.90
2023-04-13T02:44:41.034Z,99.90
2023-04-13T02:47:09.427Z,99.90
2023-04-13T02:49:42.945Z,99.90
2023-04-13T02:52:23.263Z,99.90
2023-04-13T02:54:58.227Z,99.90
2023-04-13T02:57:31.777Z,99.90
2023-04-13T03:00:01.411Z,99.90
2023-04-13T03:02:42.562Z,99.90
2023-04-13T03:05:11.360Z,99.90
2023-04-13T03:07:41.236Z,99.90
2023-04-13T03:10:11.353Z,99.90
2023-04-13T03:12:39.873Z,99.90
2023-04-13T03:15:12.118Z,99.90
2023-04-13T03:17:43.978Z,99.90
2023-04-13T03:20:16.960Z,99.90
2023-04-13T03:22:55.617Z,99.90
2023-04-13T03:25:24.479Z,99.90
2023-04-13T03:27:53.082Z,99.90
2023-04-13T03:30:23.664Z,99.90
2023-04-13T03:32:56.774Z,99.90
2023-04-13T03:35:28.025Z,99.90
2023-04-13T03:38:01.803Z,99.90
2023-04-13T03:40:37.360Z,99.90
2023-04-13T03:43:06.699Z,99.90
2023-04-13T03:45:38.623Z,99.90
2023-04-13T03:48:11.019Z,99.90
2023-04-13T03:50:39.291Z,99.90
2023-04-13T03:53:12.815Z,99.90
2023-04-13T03:55:44.099Z,99.90
2023-04-13T03:58:12.664Z,99.90
2023-04-13T04:00:41.373Z,99.90
2023-04-13T04:03:25.600Z,99.90
2023-04-13T04:05:57.692Z,99.90
2023-04-13T04:08:30.357Z,99.90
2023-04-13T04:11:02.444Z,99.90
2023-04-13T04:13:34.394Z,99.90
2023-04-13T04:16:09.053Z,99.90
2023-04-13T04:18:40.729Z,99.90
2023-04-13T04:21:15.554Z,99.90
2023-04-13T04:23:45.568Z,99.90
2023-04-13T04:26:13.896Z,99.90
2023-04-13T04:28:51.256Z,99.90
2023-04-13T04:31:25.181Z,99.90
2023-04-13T04:33:57.814Z,99.90
2023-04-13T04:36:26.930Z,99.90
2023-04-13T04:39:04.575Z,99.90
2023-04-13T04:41:39.742Z,99.90
2023-04-13T04:44:11.747Z,99.90
2023-04-13T04:46:43.701Z,99.90
2023-04-13T04:49:15.485Z,99.90
2023-04-13T04:51:46.873Z,99.90
2023-04-13T04:54:18.273Z,99.90
2023-04-13T04:56:48.268Z,99.90
2023-04-13T04:59:20.760Z,99.90
2023-04-13T05:02:02.460Z,99.90
2023-04-13T05:04:31.522Z,99.90
2023-04-13T05:06:59.748Z,99.90
2023-04-13T05:09:31.117Z,99.90
2023-04-13T05:11:59.470Z,99.90
2023-04-13T05:14:27.888Z,99.90
2023-04-13T05:16:56.205Z,99.90
2023-04-13T05:19:28.984Z,99.90
2023-04-13T05:22:11.597Z,99.90
2023-04-13T05:24:47.136Z,99.90
2023-04-13T05:27:17.770Z,99.90
2023-04-13T05:29:47.741Z,99.90
2023-04-13T05:32:20.974Z,99.90
2023-04-13T05:34:53.355Z,99.90
2023-04-13T05:37:24.466Z,99.90
2023-04-13T05:39:56.656Z,99.90
2023-04-13T05:42:30.754Z,99.90
2023-04-13T05:44:59.248Z,99.90
2023-04-13T05:47:30.380Z,99.90
2023-04-13T05:50:04.347Z,99.90
2023-04-13T05:52:32.880Z,99.90
2023-04-13T05:55:02.543Z,99.90
2023-04-13T05:57:31.537Z,99.90
2023-04-13T06:00:10.512Z,99.90
2023-04-13T06:02:49.059Z,99.90
2023-04-13T06:05:18.372Z,99.90
2023-04-13T06:07:47.732Z,99.90
2023-04-13T06:10:19.568Z,99.90
2023-04-13T06:12:50.612Z,99.90
2023-04-13T06:15:20.562Z,99.90
2023-04-13T06:17:52.373Z,99.90
2023-04-13T06:20:22.130Z,99.90
2023-04-13T06:22:50.668Z,99.90
2023-04-13T06:25:24.156Z,99.90
2023-04-13T06:27:55.502Z,99.90
2023-04-13T06:30:23.960Z,99.90
2023-04-13T06:32:56.176Z,99.90
2023-04-13T06:35:29.815Z,99.90
2023-04-13T06:37:59.711Z,99.90
2023-04-13T06:40:34.814Z,99.90
2023-04-13T06:43:13.508Z,99.90
2023-04-13T06:45:59.481Z,99.90
2023-04-13T06:48:30.733Z,99.90
2023-04-13T06:51:01.142Z,99.90
2023-04-13T06:53:33.546Z,99.90
2023-04-13T06:56:03.100Z,99.90
2023-04-13T06:58:32.107Z,99.90
2023-04-13T07:01:00.368Z,99.90
2023-04-13T07:03:31.891Z,99.90
2023-04-13T07:06:04.497Z,99.90
2023-04-13T07:08:33.239Z,99.90
2023-04-13T07:11:03.566Z,99.90
2023-04-13T07:13:39.102Z,99.90
2023-04-13T07:16:13.569Z,99.90
2023-04-13T07:18:45.814Z,99.90
2023-04-13T07:21:13.953Z,99.90
2023-04-13T07:23:56.466Z,99.90
2023-04-13T07:26:27.220Z,99.90
2023-04-13T07:28:56.237Z,99.90
2023-04-13T07:31:28.810Z,99.90
2023-04-13T07:33:57.548Z,99.90
2023-04-13T07:36:37.080Z,99.90
2023-04-13T07:39:12.487Z,99.90
2023-04-13T07:41:47.324Z,99.90
2023-04-13T07:44:20.156Z,99.90
2023-04-13T07:46:51.346Z,99.90
2023-04-13T07:49:20.604Z,99.90
2023-04-13T07:51:49.172Z,99.90
2023-04-13T07:54:18.346Z,99.90
2023-04-13T07:56:51.413Z,99.90
2023-04-13T07:59:24.734Z,99.90
2023-04-13T08:01:54.462Z,99.90
2023-04-13T08:04:24.494Z,99.90
2023-04-13T08:06:53.881Z,99.90
2023-04-13T08:09:22.428Z,99.90
2023-04-13T08:11:52.096Z,99.90
2023-04-13T08:14:20.374Z,99.90
2023-04-13T08:16:50.578Z,99.90
2023-04-13T08:19:19.930Z,99.90
2023-04-13T08:21:52.471Z,99.90
2023-04-13T08:24:21.690Z,99.90
2023-04-13T08:26:55.075Z,99.90
2023-04-13T08:29:25.461Z,99.90
2023-04-13T08:31:54.461Z,99.90
2023-04-13T08:34:22.828Z,99.90
2023-04-13T08:36:55.099Z,99.90
2023-04-13T08:39:27.346Z,99.90
2023-04-13T08:41:57.984Z,99.90
2023-04-13T08:44:31.659Z,99.90
2023-04-13T08:47:00.787Z,99.90
2023-04-13T08:49:33.673Z,99.90
2023-04-13T08:52:25.523Z,99.90
2023-04-13T08:54:57.523Z,99.90
2023-04-13T08:57:32.128Z,99.90
2023-04-13T09:00:10.390Z,99.90
2023-04-13T09:02:49.218Z,99.90
2023-04-13T09:05:31.634Z,99.90
2023-04-13T09:08:07.972Z,99.90
2023-04-13T09:10:38.570Z,99.90
2023-04-13T09:13:08.451Z,99.90
2023-04-13T09:15:38.933Z,99.90
2023-04-13T09:18:30.058Z,99.90
2023-04-13T09:21:11.168Z,99.90
2023-04-13T09:23:39.359Z,99.90
2023-04-13T09:26:08.918Z,99.90
2023-04-13T09:28:54.282Z,99.90
2023-04-13T09:31:25.947Z,99.90
2023-04-13T09:33:54.634Z,99.90
2023-04-13T09:36:24.130Z,99.90
2023-04-13T09:38:57.876Z,99.90
2023-04-13T09:41:31.825Z,99.90
2023-04-13T09:44:01.845Z,99.90
2023-04-13T09:46:30.244Z,99.90
2023-04-13T09:49:07.198Z,99.90
2023-04-13T09:51:39.079Z,99.90
2023-04-13T09:54:21.416Z,99.90
2023-04-13T09:56:52.942Z,99.90
2023-04-13T09:59:24.153Z,99.90
2023-04-13T10:01:53.968Z,99.90
2023-04-13T10:04:22.560Z,99.90
2023-04-13T10:06:52.403Z,99.90
2023-04-13T10:09:22.508Z,99.90
2023-04-13T10:11:52.491Z,99.90
2023-04-13T10:14:25.865Z,99.90
2023-04-13T10:17:08.392Z,99.90
2023-04-13T10:19:43.264Z,99.90
2023-04-13T10:22:12.449Z,99.90
2023-04-13T10:24:41.424Z,99.90
2023-04-13T10:27:14.758Z,99.90
2023-04-13T10:29:44.456Z,99.90
2023-04-13T10:32:22.784Z,99.90
2023-04-13T10:34:52.727Z,99.90
2023-04-13T10:37:25.120Z,99.90
2023-04-13T10:40:04.512Z,99.90
2023-04-13T10:42:52.021Z,99.90
2023-04-13T10:45:26.870Z,99.90
2023-04-13T10:47:58.588Z,99.90
2023-04-13T10:50:28.157Z,99.90
2023-04-13T10:53:01.679Z,99.90
2023-04-13T10:55:30.328Z,99.90
2023-04-13T10:58:02.933Z,99.90
2023-04-13T11:00:44.835Z,99.90
2023-04-13T11:03:15.989Z,99.90
2023-04-13T11:05:45.208Z,99.90
2023-04-13T11:08:20.485Z,99.90
2023-04-13T11:10:52.862Z,99.90
2023-04-13T11:13:21.613Z,99.90
2023-04-13T11:15:53.712Z,99.90
2023-04-13T11:18:30.904Z,99.90
2023-04-13T11:20:59.276Z,99.90
2023-04-13T11:23:27.389Z,99.90
2023-04-13T11:25:58.369Z,99.90
2023-04-13T11:28:37.371Z,99.90
2023-04-13T11:31:07.634Z,99.90
2023-04-13T11:33:40.230Z,99.90
2023-04-13T11:36:11.799Z,99.90
2023-04-13T11:38:42.803Z,99.90
2023-04-13T11:43:42.974Z,99.90
2023-04-13T11:46:18.358Z,99.90
2023-04-13T11:48:47.295Z,99.90
2023-04-13T11:51:18.084Z,99.90
2023-04-13T11:53:53.796Z,99.90
2023-04-13T11:56:23.441Z,99.90
2023-04-13T11:58:53.216Z,99.90
2023-04-13T12:01:32.324Z,99.90
2023-04-13T12:04:15.016Z,99.90
2023-04-13T12:06:47.269Z,99.90
2023-04-13T12:09:18.014Z,99.90
2023-04-13T12:12:08.108Z,99.90
2023-04-13T12:19:57.586Z,99.90
2023-04-13T12:22:47.909Z,99.90
2023-04-13T12:25:23.945Z,99.90
2023-04-13T12:27:53.680Z,99.90
2023-04-13T12:30:23.415Z,99.90
2023-04-13T12:32:55.231Z,99.90
2023-04-13T12:35:25.516Z,99.90
2023-04-13T12:37:56.793Z,99.90
2023-04-13T12:40:29.668Z,99.90
2023-04-13T12:42:57.814Z,99.90
2023-04-13T12:45:26.257Z,99.90
2023-04-13T12:47:58.252Z,99.90
2023-04-13T12:50:26.456Z,99.90
2023-04-13T12:53:01.734Z,99.90
2023-04-13T12:55:30.629Z,99.90
2023-04-13T12:57:59.364Z,99.90
2023-04-13T13:00:30.067Z,99.90
2023-04-13T13:03:12.430Z,99.90
2023-04-13T13:05:41.970Z,99.90
2023-04-13T13:08:12.469Z,99.90
2023-04-13T13:10:43.367Z,99.90
2023-04-13T13:13:11.488Z,99.90
2023-04-13T13:15:39.595Z,99.90
2023-04-13T13:18:10.785Z,99.90
2023-04-13T13:20:41.273Z,99.90
2023-04-13T13:23:11.689Z,99.90
2023-04-13T13:25:52.457Z,99.90
2023-04-13T13:28:32.306Z,99.90
2023-04-13T13:31:00.560Z,99.90
2023-04-13T13:33:32.473Z,99.90
2023-04-13T13:36:00.618Z,99.90
2023-04-13T13:38:29.112Z,99.90
2023-04-13T13:41:00.424Z,99.90
2023-04-13T13:43:28.610Z,99.90
2023-04-13T13:45:58.815Z,99.90
2023-04-13T13:48:29.162Z,99.90
2023-04-13T13:51:29.414Z,99.90
2023-04-13T13:54:01.832Z,99.90
2023-04-13T13:56:30.045Z,99.90
2023-04-13T13:59:00.767Z,99.90
2023-04-13T14:01:32.783Z,99.90
2023-04-13T14:04:02.451Z,99.90
2023-04-13T14:06:33.405Z,99.90
2023-04-13T14:09:01.967Z,99.90
2023-04-13T14:11:32.964Z,98.40
2023-04-13T14:14:11.012Z,98.80
2023-04-13T14:16:47.583Z,96.60
2023-04-13T14:19:20.780Z,97.30
2023-04-13T14:21:50.318Z,99.90
2023-04-13T14:24:18.437Z,97.00
2023-04-13T14:26:46.601Z,98.00
2023-04-13T14:29:17.226Z,94.70
2023-04-13T14:31:45.472Z,94.10
2023-04-13T14:34:16.134Z,96.10
2023-04-13T14:36:50.541Z,95.70
2023-04-13T14:39:20.277Z,95.80
2023-04-13T14:41:48.444Z,94.90
2023-04-13T14:44:16.557Z,94.20
2023-04-13T14:46:44.857Z,92.80
2023-04-13T14:49:13.021Z,85.80
2023-04-13T14:51:43.719Z,86.40
2023-04-13T14:54:13.458Z,88.70
2023-04-13T14:56:41.737Z,84.90
2023-04-13T14:59:10.016Z,85.90
2023-04-13T15:01:41.179Z,86.70
2023-04-13T15:04:09.503Z,83.80
2023-04-13T15:06:40.152Z,87.10
2023-04-13T15:09:09.610Z,88.00
2023-04-13T15:11:39.218Z,86.70
2023-04-13T15:14:07.386Z,84.50
2023-04-13T15:16:35.783Z,85.80
2023-04-13T15:19:04.217Z,83.50
2023-04-13T15:21:32.671Z,85.90
2023-04-13T15:24:00.980Z,83.10
2023-04-13T15:26:30.393Z,83.40
2023-04-13T15:29:02.578Z,82.90
2023-04-13T15:31:30.763Z,84.20
2023-04-13T15:33:59.313Z,83.00
2023-04-13T15:36:27.736Z,84.50
2023-04-13T15:38:55.849Z,85.00
2023-04-13T15:41:26.963Z,85.80
2023-04-13T15:43:59.052Z,80.10
2023-04-13T15:46:29.027Z,81.50
2023-04-13T15:48:57.662Z,80.30
2023-04-13T15:51:27.799Z,79.90
2023-04-13T15:53:55.941Z,78.00
2023-04-13T15:56:26.332Z,77.60
2023-04-13T15:58:54.568Z,75.80
2023-04-13T16:01:22.979Z,74.90
2023-04-13T16:03:52.843Z,75.80
2023-04-13T16:06:21.175Z,76.80
2023-04-13T16:08:50.930Z,78.10
2023-04-13T16:11:20.616Z,77.40
2023-04-13T16:13:51.150Z,78.40
2023-04-13T16:16:19.848Z,79.80
2023-04-13T16:18:49.185Z,79.20
2023-04-13T16:21:19.941Z,79.20
2023-04-13T16:23:50.445Z,80.30
2023-04-13T16:26:20.391Z,81.70
2023-04-13T16:28:48.622Z,80.30
2023-04-13T16:31:17.013Z,76.30
2023-04-13T16:33:45.203Z,77.20
2023-04-13T16:36:13.342Z,76.60
2023-04-13T16:38:43.007Z,75.30
2023-04-13T16:41:11.782Z,75.90
2023-04-13T16:43:39.943Z,75.60
2023-04-13T16:46:08.214Z,76.10
2023-04-13T16:48:38.594Z,77.70
2023-04-13T16:51:09.165Z,76.50
2023-04-13T16:53:38.136Z,75.00
2023-04-13T16:56:08.407Z,77.10
2023-04-13T16:58:37.052Z,77.30
2023-04-13T17:01:05.354Z,78.00
2023-04-13T17:03:36.288Z,78.40
2023-04-13T17:06:04.967Z,78.50
2023-04-13T17:08:35.459Z,79.30
2023-04-13T17:11:08.462Z,78.70
2023-04-13T17:13:36.990Z,78.90
2023-04-13T17:16:05.406Z,80.30
2023-04-13T17:18:33.597Z,79.30
2023-04-13T17:21:04.063Z,79.70
2023-04-13T17:23:32.308Z,81.50
2023-04-13T17:26:00.497Z,80.80
2023-04-13T17:28:30.136Z,82.10
2023-04-13T17:31:00.806Z,82.60
2023-04-13T17:33:29.284Z,83.10
2023-04-13T17:35:57.741Z,83.20
2023-04-13T17:38:26.146Z,82.90
2023-04-13T17:40:54.449Z,84.40
2023-04-13T17:43:23.433Z,86.80
2023-04-13T17:45:53.097Z,87.80
2023-04-13T17:48:21.556Z,90.10
2023-04-13T17:50:49.829Z,91.60
2023-04-13T17:53:20.031Z,90.40
2023-04-13T17:55:48.254Z,92.80
2023-04-13T17:58:16.443Z,91.40
2023-04-13T18:00:44.701Z,91.80
2023-04-13T18:03:14.438Z,92.20
2023-04-13T18:05:45.488Z,94.10
2023-04-13T18:08:13.842Z,94.30
2023-04-13T18:10:42.080Z,92.90
2023-04-13T18:13:10.302Z,94.30
2023-04-13T18:15:38.497Z,95.50
2023-04-13T18:18:07.081Z,95.00
2023-04-13T18:20:41.394Z,93.80
2023-04-13T18:23:09.663Z,95.50
2023-04-13T18:25:37.853Z,96.60
2023-04-13T18:28:08.316Z,97.10
2023-04-13T18:30:36.522Z,98.40
2023-04-13T18:33:04.830Z,98.60
2023-04-13T18:35:33.072Z,99.40
2023-04-13T18:38:02.848Z,99.90
2023-04-13T18:40:31.018Z,99.90
2023-04-13T18:43:02.172Z,99.90
2023-04-13T18:45:30.600Z,99.90
2023-04-13T18:47:58.987Z,99.90
2023-04-13T18:50:27.639Z,99.90
2023-04-13T18:52:56.181Z,99.90
2023-04-13T18:55:26.747Z,99.90
2023-04-13T18:57:55.080Z,99.90
2023-04-13T19:00:24.349Z,99.90
2023-04-13T19:02:53.279Z,99.90
2023-04-13T19:05:21.670Z,99.90
2023-04-13T19:07:58.623Z,99.90
2023-04-13T19:10:31.498Z,99.90
2023-04-13T19:12:59.832Z,99.90
2023-04-13T19:15:28.030Z,99.90
2023-04-13T19:17:56.967Z,99.90
2023-04-13T19:20:25.972Z,99.90
2023-04-13T19:22:54.152Z,99.90
2023-04-13T19:25:22.504Z,99.90
2023-04-13T19:27:52.088Z,99.90
2023-04-13T19:30:20.718Z,99.90
2023-04-13T19:32:51.650Z,99.90
2023-04-13T19:35:22.106Z,99.90
2023-04-13T19:37:50.339Z,99.90
2023-04-13T19:40:18.822Z,99.90
2023-04-13T19:42:48.362Z,99.90
2023-04-13T19:45:19.089Z,99.90
2023-04-13T19:47:47.703Z,99.90
2023-04-13T19:50:16.574Z,99.90
2023-04-13T19:52:47.257Z,99.90
2023-04-13T19:55:15.490Z,99.90
2023-04-13T19:57:43.725Z,99.90
2023-04-13T20:00:20.589Z,99.90
2023-04-13T20:02:52.510Z,99.90
2023-04-13T20:05:21.592Z,99.90
2023-04-13T20:07:49.872Z,99.90
2023-04-13T20:10:18.123Z,99.90
2023-04-13T20:12:46.273Z,99.90
2023-04-13T20:15:14.925Z,99.90
2023-04-13T20:17:43.260Z,99.90
2023-04-13T20:20:13.522Z,99.90
2023-04-13T20:22:41.727Z,99.90
2023-04-13T20:25:11.149Z,99.90
2023-04-13T20:27:42.298Z,99.90
2023-04-13T20:30:11.777Z,99.90
2023-04-13T20:32:40.407Z,99.90
2023-04-13T20:35:09.694Z,99.90
2023-04-13T20:37:39.288Z,99.90
2023-04-13T20:40:13.626Z,99.90
2023-04-13T20:42:42.232Z,99.90
2023-04-13T20:45:12.678Z,99.90
2023-04-13T20:47:42.459Z,99.90
2023-04-13T20:50:12.003Z,99.90
2023-04-13T20:52:46.371Z,99.90
2023-04-13T20:55:14.587Z,99.90
2023-04-13T20:57:43.465Z,99.90
2023-04-13T21:00:15.481Z,99.90
2023-04-13T21:02:44.974Z,99.90
2023-04-13T21:05:13.438Z,99.90
2023-04-13T21:07:43.406Z,99.90
2023-04-13T21:10:12.411Z,99.90
2023-04-13T21:12:40.625Z,99.90
2023-04-13T21:15:10.043Z,99.90
2023-04-13T21:17:41.088Z,99.90
2023-04-13T21:20:10.682Z,99.90
2023-04-13T21:22:38.974Z,99.90
2023-04-13T21:25:09.156Z,99.90
2023-04-13T21:27:37.491Z,99.90
2023-04-13T21:30:06.907Z,99.90
2023-04-13T21:32:35.138Z,99.90
2023-04-13T21:35:03.455Z,99.90
2023-04-13T21:37:31.649Z,99.90
2023-04-13T21:40:00.761Z,99.90
2023-04-13T21:42:30.679Z,99.90
2023-04-13T21:44:59.922Z,99.90
2023-04-13T21:47:28.186Z,99.90
2023-04-13T21:49:56.373Z,99.90
2023-04-13T21:52:24.578Z,99.90
2023-04-13T21:54:52.778Z,99.90
2023-04-13T21:57:20.936Z,99.90
2023-04-13T21:59:50.457Z,99.90
2023-04-13T22:02:21.059Z,99.90
2023-04-13T22:04:49.337Z,99.90
2023-04-13T22:07:17.568Z,99.90
2023-04-13T22:09:45.780Z,99.90
2023-04-13T22:12:14.280Z,99.90
2023-04-13T22:14:42.508Z,99.90
2023-04-13T22:17:13.235Z,99.90
2023-04-13T22:19:42.627Z,99.90
2023-04-13T22:22:10.834Z,99.90
2023-04-13T22:24:41.526Z,99.90
2023-04-13T22:27:09.837Z,99.90
2023-04-13T22:29:38.062Z,99.90
2023-04-13T22:32:06.261Z,99.90
2023-04-13T22:34:35.771Z,99.90
2023-04-13T22:37:06.940Z,99.90
2023-04-13T22:39:37.732Z,99.90
2023-04-13T22:42:08.277Z,99.90
2023-04-13T22:44:36.956Z,99.90
2023-04-13T22:47:05.631Z,99.90
2023-04-13T22:49:35.224Z,99.90
2023-04-13T22:52:03.378Z,99.90
2023-04-13T22:54:32.436Z,99.90
2023-04-13T22:57:04.617Z,99.90
2023-04-13T22:59:33.345Z,99.90
2023-04-13T23:02:03.711Z,99.90
2023-04-13T23:04:35.753Z,99.90
2023-04-13T23:07:03.907Z,99.90
2023-04-13T23:09:32.179Z,99.90
2023-04-13T23:12:03.312Z,99.90
2023-04-13T23:14:31.436Z,99.90
2023-04-13T23:16:59.612Z,99.90
2023-04-13T23:19:27.753Z,99.90
2023-04-13T23:21:59.864Z,99.90
2023-04-13T23:24:28.698Z,99.90
2023-04-13T23:26:57.970Z,99.90
2023-04-13T23:29:26.221Z,99.90
2023-04-13T23:31:57.067Z,99.90
2023-04-13T23:34:25.292Z,99.90
2023-04-13T23:36:56.202Z,99.90
2023-04-13T23:39:25.722Z,99.90
2023-04-13T23:41:55.921Z,99.90
2023-04-13T23:44:26.514Z,99.90
2023-04-13T23:46:56.987Z,99.90
2023-04-13T23:49:25.106Z,99.90
2023-04-13T23:51:53.308Z,99.90
2023-04-13T23:54:21.447Z,99.90
2023-04-13T23:56:51.137Z,99.90
2023-04-13T23:59:21.325Z,99.90
